Time;durP1;ratioP1;P1;durP2;ratioP2;P2;SDS_P1;SDS_P2;PMS_P1;PMS_P2;Temp;Humidity;BMP_temperature;BMP_pressure;BME280_temperature;BME280_humidity;BME280_pressure;Samples;Min_cycle;Max_cycle;Signal;HPM_P1;HPM_P2
2021/08/06 00:01:39;;;;;;;6.50;3.25;;;16.70;99.90;;;;;;4971032;28;20033;-58
2021/08/06 00:04:05;;;;;;;7.65;3.53;;;16.70;99.90;;;;;;4971884;28;20037;-58
2021/08/06 00:06:32;;;;;;;5.63;3.83;;;16.70;99.90;;;;;;4970930;28;20055;-58
2021/08/06 00:08:58;;;;;;;5.03;3.72;;;16.60;99.90;;;;;;4972167;28;20041;-58
2021/08/06 00:11:31;;;;;;;10.02;3.60;;;16.60;99.90;;;;;;4971824;28;20095;-58
2021/08/06 00:13:58;;;;;;;7.07;3.47;;;16.60;99.90;;;;;;4976314;28;20094;-58
2021/08/06 00:16:24;;;;;;;7.70;3.38;;;16.60;99.90;;;;;;4970287;28;20303;-58
2021/08/06 00:18:51;;;;;;;8.93;3.45;;;16.60;99.90;;;;;;4971972;28;20046;-58
2021/08/06 00:21:17;;;;;;;6.50;3.33;;;16.60;99.90;;;;;;4977326;28;20109;-58
2021/08/06 00:23:44;;;;;;;6.80;3.80;;;16.70;99.90;;;;;;4970242;28;20190;-58
2021/08/06 00:26:11;;;;;;;5.65;3.40;;;16.70;99.90;;;;;;4973350;28;20027;-58
2021/08/06 00:28:36;;;;;;;7.07;2.63;;;16.60;99.90;;;;;;4974765;28;20054;-58
2021/08/06 00:31:02;;;;;;;7.97;3.42;;;16.60;99.90;;;;;;4973845;28;20026;-58
2021/08/06 00:33:28;;;;;;;6.78;3.25;;;16.70;99.90;;;;;;4976073;28;20086;-58
2021/08/06 00:35:54;;;;;;;4.18;2.63;;;16.60;99.90;;;;;;4974049;28;20038;-58
2021/08/06 00:38:20;;;;;;;6.13;2.92;;;16.70;99.90;;;;;;4973451;28;20396;-58
2021/08/06 00:40:45;;;;;;;6.05;3.40;;;16.70;99.90;;;;;;4974988;28;20030;-58
2021/08/06 00:43:11;;;;;;;11.82;4.03;;;16.60;99.90;;;;;;4973710;28;20387;-58
2021/08/06 00:45:37;;;;;;;5.43;3.10;;;16.70;99.90;;;;;;4975226;28;20042;-58
2021/08/06 00:48:05;;;;;;;10.10;3.95;;;16.70;99.90;;;;;;4975341;28;20443;-58
2021/08/06 00:50:31;;;;;;;6.95;2.97;;;16.60;99.90;;;;;;4973391;28;20031;-58
2021/08/06 00:52:57;;;;;;;5.53;3.45;;;16.60;99.90;;;;;;4973650;28;20050;-58
2021/08/06 00:55:23;;;;;;;8.32;3.53;;;16.50;99.90;;;;;;4974097;28;20097;-58
2021/08/06 00:57:48;;;;;;;5.32;3.30;;;16.50;99.90;;;;;;4973704;28;20039;-58
2021/08/06 01:00:14;;;;;;;6.03;2.67;;;16.50;99.90;;;;;;4975446;28;20321;-58
2021/08/06 01:02:46;;;;;;;4.18;3.00;;;16.40;99.90;;;;;;4971230;28;20030;-58
2021/08/06 01:05:17;;;;;;;4.78;3.08;;;16.40;99.90;;;;;;4987722;28;20037;-58
2021/08/06 01:07:59;;;;;;;8.15;2.97;;;16.30;99.90;;;;;;4975076;28;20112;-58
2021/08/06 01:10:33;;;;;;;5.40;2.90;;;16.30;99.90;;;;;;4982644;28;20027;-58
2021/08/06 01:13:04;;;;;;;5.88;3.63;;;16.20;99.90;;;;;;4974102;28;20464;-58
2021/08/06 01:15:31;;;;;;;6.55;3.10;;;16.10;99.90;;;;;;4974866;28;20038;-58
2021/08/06 01:18:01;;;;;;;9.43;3.83;;;16.10;99.90;;;;;;4973145;28;20030;-58
2021/08/06 01:20:34;;;;;;;7.45;3.28;;;16.00;99.90;;;;;;4974121;28;20043;-58
2021/08/06 01:23:14;;;;;;;10.75;3.30;;;15.90;99.90;;;;;;4974422;28;20038;-58
2021/08/06 01:25:46;;;;;;;10.05;3.97;;;15.90;99.90;;;;;;4974150;28;20031;-58
2021/08/06 01:28:15;;;;;;;6.55;3.65;;;15.80;99.90;;;;;;4973434;28;20030;-58
2021/08/06 01:30:42;;;;;;;6.47;3.42;;;15.70;99.90;;;;;;4973913;28;22171;-58
2021/08/06 01:33:09;;;;;;;10.68;3.75;;;15.70;99.90;;;;;;4973733;28;20073;-58
2021/08/06 01:35:35;;;;;;;7.82;3.38;;;15.60;99.90;;;;;;4974161;28;20054;-58
2021/08/06 01:38:01;;;;;;;7.18;3.22;;;15.50;99.90;;;;;;4974059;28;20034;-58
2021/08/06 01:40:27;;;;;;;6.18;3.72;;;15.50;99.90;;;;;;4974061;28;20038;-58
2021/08/06 01:43:17;;;;;;;10.02;4.00;;;15.40;99.90;;;;;;4973136;28;20037;-58
2021/08/06 01:45:49;;;;;;;7.47;4.00;;;15.40;99.90;;;;;;4974556;28;20325;-58
2021/08/06 01:48:17;;;;;;;6.20;3.65;;;15.40;99.90;;;;;;4973825;28;20377;-58
2021/08/06 01:50:45;;;;;;;5.78;3.70;;;15.40;99.90;;;;;;4965554;28;20364;-58
2021/08/06 01:53:16;;;;;;;8.02;3.83;;;15.40;99.90;;;;;;4973012;28;20031;-58
2021/08/06 01:55:51;;;;;;;6.80;3.78;;;15.30;99.90;;;;;;4970555;28;20097;-58
2021/08/06 01:58:19;;;;;;;8.38;4.15;;;15.30;99.90;;;;;;4973292;28;20027;-58
2021/08/06 02:00:45;;;;;;;7.68;3.97;;;15.30;99.90;;;;;;4972639;28;20333;-58
2021/08/06 02:03:11;;;;;;;5.47;4.18;;;15.30;99.90;;;;;;4974449;28;20019;-58
2021/08/06 02:05:37;;;;;;;12.45;4.45;;;15.30;99.90;;;;;;4973104;28;20041;-58
2021/08/06 02:08:04;;;;;;;7.97;4.57;;;15.30;99.90;;;;;;4972957;28;20077;-58
2021/08/06 02:10:30;;;;;;;6.82;4.05;;;15.30;99.90;;;;;;4973134;28;20027;-58
2021/08/06 02:12:57;;;;;;;11.55;4.60;;;15.20;99.90;;;;;;4974256;28;20061;-58
2021/08/06 02:15:23;;;;;;;6.07;4.20;;;15.20;99.90;;;;;;4971596;28;20054;-58
2021/08/06 02:17:51;;;;;;;9.13;4.18;;;15.10;99.90;;;;;;4972072;28;20034;-58
2021/08/06 02:20:17;;;;;;;10.43;4.93;;;15.10;99.90;;;;;;4972579;28;20031;-58
2021/08/06 02:22:45;;;;;;;9.20;4.90;;;15.10;99.90;;;;;;4972911;28;20285;-58
2021/08/06 02:25:13;;;;;;;9.55;4.65;;;15.10;99.90;;;;;;4972566;28;20035;-58
2021/08/06 02:27:40;;;;;;;8.85;4.55;;;15.10;99.90;;;;;;4971915;28;20300;-58
2021/08/06 02:30:07;;;;;;;8.80;4.63;;;15.10;99.90;;;;;;4972090;28;20030;-58
2021/08/06 02:32:33;;;;;;;8.70;4.88;;;15.10;99.90;;;;;;4972874;28;20026;-59
2021/08/06 02:34:59;;;;;;;9.07;4.55;;;15.00;99.90;;;;;;4972481;28;20039;-58
2021/08/06 02:37:25;;;;;;;10.48;4.70;;;15.10;99.90;;;;;;4972342;28;20248;-58
2021/08/06 02:39:51;;;;;;;9.70;5.40;;;15.10;99.90;;;;;;4973163;28;20515;-58
2021/08/06 02:42:17;;;;;;;12.05;5.20;;;15.10;99.90;;;;;;4971882;28;20054;-58
2021/08/06 02:44:43;;;;;;;10.30;4.82;;;15.10;99.90;;;;;;4965581;28;20034;-59
2021/08/06 02:47:09;;;;;;;8.82;5.13;;;15.10;99.90;;;;;;4972355;28;20221;-59
2021/08/06 02:49:36;;;;;;;12.00;5.00;;;15.00;99.90;;;;;;4972127;28;20266;-58
2021/08/06 02:52:06;;;;;;;10.05;5.00;;;15.10;99.90;;;;;;4971425;28;20041;-59
2021/08/06 02:54:33;;;;;;;9.02;5.22;;;15.10;99.90;;;;;;4972183;28;20213;-58
2021/08/06 02:56:59;;;;;;;10.20;5.32;;;15.10;99.90;;;;;;4979232;28;20159;-58
2021/08/06 02:59:25;;;;;;;9.27;4.95;;;15.00;99.90;;;;;;4972243;28;20050;-58
2021/08/06 03:01:51;;;;;;;13.73;5.55;;;15.00;99.90;;;;;;4972684;28;20027;-58
2021/08/06 03:04:17;;;;;;;11.20;5.18;;;15.00;99.90;;;;;;4970168;28;20193;-58
2021/08/06 03:06:43;;;;;;;9.50;5.50;;;15.00;99.90;;;;;;4972500;28;20033;-59
2021/08/06 03:09:09;;;;;;;10.07;5.38;;;15.00;99.90;;;;;;4972524;28;22074;-58
2021/08/06 03:11:34;;;;;;;8.02;4.45;;;15.00;99.90;;;;;;4972076;28;20031;-58
2021/08/06 03:14:00;;;;;;;8.40;5.13;;;15.00;99.90;;;;;;4971713;28;20043;-59
2021/08/06 03:16:27;;;;;;;10.50;5.75;;;15.00;99.90;;;;;;4962382;28;20194;-58
2021/08/06 03:18:52;;;;;;;10.00;5.35;;;15.00;99.90;;;;;;4973057;28;20562;-58
2021/08/06 03:21:18;;;;;;;12.77;5.80;;;14.90;99.90;;;;;;4972082;28;20035;-58
2021/08/06 03:23:44;;;;;;;7.30;4.65;;;14.90;99.90;;;;;;4971221;28;20591;-58
2021/08/06 03:26:10;;;;;;;9.63;5.40;;;14.90;99.90;;;;;;4971561;28;20320;-59
2021/08/06 03:28:36;;;;;;;11.93;5.05;;;14.90;99.90;;;;;;4971196;28;20030;-59
2021/08/06 03:31:02;;;;;;;9.82;5.13;;;14.90;99.90;;;;;;4971733;28;20081;-59
2021/08/06 03:33:28;;;;;;;10.73;4.63;;;15.00;99.90;;;;;;4971171;28;20116;-59
2021/08/06 03:35:54;;;;;;;10.60;5.15;;;14.90;99.90;;;;;;4964142;28;20414;-58
2021/08/06 03:38:24;;;;;;;10.73;4.50;;;15.00;99.90;;;;;;4972482;28;20027;-59
2021/08/06 03:40:51;;;;;;;10.93;4.75;;;14.90;99.90;;;;;;4972008;28;20061;-58
2021/08/06 03:43:18;;;;;;;8.60;4.38;;;14.90;99.90;;;;;;4972711;28;20038;-58
2021/08/06 03:45:44;;;;;;;8.65;4.22;;;14.90;99.90;;;;;;4971982;28;20030;-59
2021/08/06 03:48:10;;;;;;;8.23;4.30;;;14.90;99.90;;;;;;4970753;28;20039;-58
2021/08/06 03:50:37;;;;;;;10.23;4.65;;;14.90;99.90;;;;;;4971671;28;20041;-58
2021/08/06 03:53:03;;;;;;;9.13;4.20;;;14.90;99.90;;;;;;4972135;28;20051;-58
2021/08/06 03:55:29;;;;;;;15.07;4.63;;;14.90;99.90;;;;;;4971571;28;20093;-58
2021/08/06 03:57:58;;;;;;;6.90;4.13;;;14.90;99.90;;;;;;4971188;28;20034;-58
2021/08/06 04:00:26;;;;;;;10.65;4.55;;;14.90;99.90;;;;;;4971778;28;20088;-59
2021/08/06 04:02:51;;;;;;;9.43;4.13;;;14.90;99.90;;;;;;4975106;28;20257;-59
2021/08/06 04:05:18;;;;;;;10.18;4.38;;;15.00;99.90;;;;;;4976633;28;20050;-59
2021/08/06 04:07:45;;;;;;;8.07;3.72;;;14.90;99.90;;;;;;4975355;28;20054;-59
2021/08/06 04:10:13;;;;;;;6.68;3.97;;;15.00;99.90;;;;;;4975336;28;20334;-58
2021/08/06 04:12:38;;;;;;;6.15;3.75;;;15.00;99.90;;;;;;4975157;28;20332;-59
2021/08/06 04:15:06;;;;;;;5.93;3.90;;;15.00;99.90;;;;;;4975479;28;20037;-59
2021/08/06 04:17:31;;;;;;;7.68;3.67;;;15.00;99.90;;;;;;4975777;28;20065;-59
2021/08/06 04:19:57;;;;;;;7.05;3.92;;;15.10;99.90;;;;;;4967680;28;20042;-59
2021/08/06 04:22:23;;;;;;;7.10;3.45;;;15.10;99.90;;;;;;4976089;28;20109;-59
2021/08/06 04:24:49;;;;;;;7.00;3.97;;;15.20;99.90;;;;;;4975004;28;20102;-59
2021/08/06 04:27:15;;;;;;;5.57;4.10;;;15.20;99.90;;;;;;4974575;28;20034;-59
2021/08/06 04:29:41;;;;;;;6.30;3.53;;;15.30;99.90;;;;;;4973200;28;20046;-59
2021/08/06 04:32:07;;;;;;;9.55;3.50;;;15.40;99.90;;;;;;4974301;28;20356;-58
2021/08/06 04:34:33;;;;;;;6.93;3.63;;;15.40;99.90;;;;;;4975935;28;20054;-59
2021/08/06 04:36:58;;;;;;;5.13;2.95;;;15.50;99.90;;;;;;4974364;28;20057;-59
2021/08/06 04:39:24;;;;;;;10.25;3.88;;;15.50;99.90;;;;;;4974434;28;20037;-59
2021/08/06 04:41:51;;;;;;;8.50;3.38;;;15.60;99.90;;;;;;4976203;28;20076;-59
2021/08/06 04:44:17;;;;;;;9.25;3.75;;;15.60;99.90;;;;;;4972611;28;20030;-59
2021/08/06 04:46:43;;;;;;;6.10;3.22;;;15.70;99.90;;;;;;4975139;28;20041;-59
2021/08/06 04:49:09;;;;;;;8.13;3.72;;;15.70;99.90;;;;;;4973763;28;20035;-59
2021/08/06 04:51:35;;;;;;;6.75;3.45;;;15.80;99.90;;;;;;4973831;28;20374;-59
2021/08/06 04:54:00;;;;;;;9.32;3.20;;;15.80;99.90;;;;;;4975276;28;20125;-59
2021/08/06 04:56:27;;;;;;;10.70;3.28;;;15.90;99.90;;;;;;4974666;28;20038;-59
2021/08/06 04:58:52;;;;;;;6.88;3.28;;;16.00;99.90;;;;;;4974343;28;20049;-59
2021/08/06 05:01:18;;;;;;;7.95;3.50;;;16.00;99.90;;;;;;4975277;28;20027;-59
2021/08/06 05:03:44;;;;;;;7.05;3.30;;;16.00;99.90;;;;;;4973870;28;20045;-59
2021/08/06 05:06:10;;;;;;;4.70;2.92;;;16.00;99.90;;;;;;4969916;28;20030;-59
2021/08/06 05:08:38;;;;;;;5.88;3.35;;;16.00;99.90;;;;;;4972686;28;20039;-59
2021/08/06 05:11:04;;;;;;;7.13;3.03;;;16.00;99.90;;;;;;4970598;28;49430;-59
2021/08/06 05:13:30;;;;;;;7.55;3.20;;;16.10;99.90;;;;;;4973068;28;20039;-58
2021/08/06 05:15:56;;;;;;;7.03;3.50;;;16.30;99.90;;;;;;4973381;28;20034;-59
2021/08/06 05:18:21;;;;;;;6.38;2.95;;;16.30;99.90;;;;;;4972549;28;20058;-59
2021/08/06 05:20:48;;;;;;;10.20;3.70;;;16.50;99.90;;;;;;4971149;28;20050;-59
2021/08/06 05:23:14;;;;;;;13.45;3.80;;;16.60;99.90;;;;;;4972219;28;20027;-59
2021/08/06 05:25:40;;;;;;;7.50;2.90;;;16.70;99.90;;;;;;4972030;28;20077;-59
2021/08/06 05:28:06;;;;;;;8.85;3.30;;;16.80;99.90;;;;;;4973331;28;20030;-59
2021/08/06 05:30:31;;;;;;;7.43;2.78;;;16.80;99.90;;;;;;4972394;28;20037;-59
2021/08/06 05:32:57;;;;;;;6.47;2.65;;;16.80;99.90;;;;;;4970013;28;20046;-59
2021/08/06 05:35:23;;;;;;;6.40;3.47;;;16.90;99.90;;;;;;4971517;28;20268;-59
2021/08/06 05:37:49;;;;;;;6.70;3.17;;;16.80;99.90;;;;;;4973275;28;20058;-59
2021/08/06 05:40:15;;;;;;;5.03;2.90;;;16.80;99.90;;;;;;4968708;28;20035;-59
2021/08/06 05:42:41;;;;;;;9.00;3.35;;;16.90;99.90;;;;;;4973784;28;20035;-59
2021/08/06 05:45:07;;;;;;;7.22;3.17;;;16.90;99.90;;;;;;4980934;28;20174;-59
2021/08/06 05:47:50;;;;;;;9.48;3.30;;;16.80;99.90;;;;;;4973815;28;20039;-59
2021/08/06 05:50:17;;;;;;;5.82;3.00;;;16.90;99.90;;;;;;4973770;28;20228;-59
2021/08/06 05:52:42;;;;;;;7.95;2.90;;;17.00;99.90;;;;;;4972958;28;20038;-57
2021/08/06 05:55:09;;;;;;;7.10;2.95;;;17.00;99.90;;;;;;4971474;28;20058;-59
2021/08/06 05:57:35;;;;;;;8.07;3.30;;;17.10;99.90;;;;;;4973833;28;20053;-59
2021/08/06 06:00:01;;;;;;;6.90;2.38;;;17.20;99.90;;;;;;4973095;28;20328;-59
2021/08/06 06:02:26;;;;;;;8.95;3.20;;;17.30;99.90;;;;;;4970748;28;20041;-59
2021/08/06 06:04:52;;;;;;;4.50;2.88;;;17.40;99.90;;;;;;4972693;28;20058;-59
2021/08/06 06:07:18;;;;;;;7.32;3.15;;;17.40;99.90;;;;;;4972968;28;20385;-59
2021/08/06 06:09:44;;;;;;;8.27;3.08;;;17.50;99.90;;;;;;4971300;28;20023;-59
2021/08/06 06:12:09;;;;;;;8.68;2.90;;;17.60;99.90;;;;;;4972243;28;20035;-59
2021/08/06 06:14:35;;;;;;;8.30;3.33;;;17.70;99.90;;;;;;4970354;28;20038;-59
2021/08/06 06:17:01;;;;;;;5.13;2.78;;;17.90;99.90;;;;;;4969512;28;20030;-57
2021/08/06 06:19:27;;;;;;;6.45;2.75;;;17.90;99.90;;;;;;4972044;28;20372;-57
2021/08/06 06:21:53;;;;;;;6.95;3.22;;;18.00;99.90;;;;;;4969795;28;20022;-59
2021/08/06 06:24:18;;;;;;;6.88;2.72;;;18.10;99.90;;;;;;4964350;28;20030;-59
2021/08/06 06:26:44;;;;;;;7.53;2.92;;;18.10;99.90;;;;;;4967521;28;20030;-59
2021/08/06 06:29:10;;;;;;;6.43;2.88;;;18.20;99.90;;;;;;4970050;28;20019;-56
2021/08/06 06:31:36;;;;;;;6.82;2.65;;;18.30;99.90;;;;;;4972524;28;20245;-57
2021/08/06 06:34:02;;;;;;;5.50;2.40;;;18.50;99.90;;;;;;4973206;28;20054;-56
2021/08/06 06:36:28;;;;;;;8.45;2.47;;;18.70;99.90;;;;;;4971764;28;20076;-57
2021/08/06 06:38:54;;;;;;;4.20;2.30;;;18.80;99.90;;;;;;4967783;28;20065;-57
2021/08/06 06:41:19;;;;;;;6.22;2.03;;;18.80;99.90;;;;;;4969526;28;20311;-57
2021/08/06 06:43:45;;;;;;;5.97;2.28;;;18.80;99.90;;;;;;4967468;28;20076;-57
2021/08/06 06:46:11;;;;;;;6.68;2.58;;;18.70;99.90;;;;;;4958358;28;20045;-57
2021/08/06 06:48:37;;;;;;;8.13;2.75;;;18.60;99.90;;;;;;4959247;28;20027;-57
2021/08/06 06:51:03;;;;;;;4.68;2.08;;;18.50;99.90;;;;;;4958109;28;20035;-57
2021/08/06 06:53:29;;;;;;;6.35;2.53;;;18.50;99.90;;;;;;4960073;28;20031;-57
2021/08/06 06:55:55;;;;;;;5.72;2.45;;;18.50;99.90;;;;;;4960027;28;20446;-57
2021/08/06 06:58:22;;;;;;;4.72;1.88;;;18.50;99.90;;;;;;4961022;28;20038;-57
2021/08/06 07:00:50;;;;;;;5.05;2.55;;;18.50;99.90;;;;;;4958804;28;20052;-57
2021/08/06 07:03:16;;;;;;;4.07;2.00;;;18.60;99.90;;;;;;4967394;28;20054;-57
2021/08/06 07:05:41;;;;;;;3.50;2.03;;;18.70;99.90;;;;;;4965836;28;20023;-58
2021/08/06 07:08:07;;;;;;;5.60;2.60;;;18.80;99.90;;;;;;4969011;28;20034;-58
2021/08/06 07:10:33;;;;;;;6.65;2.13;;;18.80;99.90;;;;;;4970169;28;20023;-57
2021/08/06 07:12:59;;;;;;;4.80;2.28;;;18.70;99.90;;;;;;4970454;28;20033;-58
2021/08/06 07:15:25;;;;;;;4.00;2.38;;;18.50;99.90;;;;;;4968153;28;20030;-57
2021/08/06 07:17:51;;;;;;;5.45;2.67;;;18.50;99.90;;;;;;4969414;28;20515;-57
2021/08/06 07:20:18;;;;;;;4.57;2.50;;;18.60;99.90;;;;;;4971105;28;20389;-57
2021/08/06 07:22:44;;;;;;;5.05;2.28;;;18.70;99.90;;;;;;4966533;28;20019;-59
2021/08/06 07:25:13;;;;;;;9.43;2.55;;;18.60;99.90;;;;;;4966616;28;20041;-58
2021/08/06 07:27:40;;;;;;;8.53;2.53;;;18.80;99.90;;;;;;4972399;28;20054;-59
2021/08/06 07:30:07;;;;;;;5.35;2.67;;;19.00;99.90;;;;;;4968224;28;20863;-59
2021/08/06 07:32:34;;;;;;;5.18;2.25;;;19.30;99.90;;;;;;4963852;28;20073;-59
2021/08/06 07:35:00;;;;;;;4.70;1.90;;;19.40;99.90;;;;;;4966559;28;20133;-59
2021/08/06 07:37:26;;;;;;;6.18;2.20;;;19.70;99.90;;;;;;4968184;28;20054;-59
2021/08/06 07:39:52;;;;;;;8.50;2.05;;;20.00;99.90;;;;;;4968675;28;20042;-57
2021/08/06 07:42:18;;;;;;;4.47;2.40;;;20.00;99.90;;;;;;4966287;28;20101;-57
2021/08/06 07:44:45;;;;;;;3.35;2.10;;;20.20;99.90;;;;;;4968934;28;20039;-58
2021/08/06 07:47:11;;;;;;;7.43;2.33;;;20.40;99.90;;;;;;4970013;28;20289;-58
2021/08/06 07:49:39;;;;;;;5.50;2.08;;;20.80;99.90;;;;;;4963986;28;20065;-57
2021/08/06 07:52:05;;;;;;;6.45;2.35;;;21.00;99.90;;;;;;4968299;28;20045;-58
2021/08/06 07:54:31;;;;;;;3.38;2.03;;;20.80;99.90;;;;;;4979480;28;20046;-58
2021/08/06 07:56:57;;;;;;;5.95;2.47;;;20.50;99.90;;;;;;4966859;28;20378;-57
2021/08/06 07:59:23;;;;;;;5.13;2.30;;;20.20;99.90;;;;;;4962240;28;20085;-58
2021/08/06 08:01:49;;;;;;;6.40;2.70;;;20.00;99.90;;;;;;4956672;28;20062;-58
2021/08/06 08:04:14;;;;;;;7.60;2.60;;;19.90;99.90;;;;;;4958714;28;20027;-58
2021/08/06 08:06:40;;;;;;;4.45;2.70;;;19.90;99.90;;;;;;4966214;28;20118;-58
2021/08/06 08:09:07;;;;;;;3.58;2.38;;;19.90;99.90;;;;;;4954627;28;20042;-58
2021/08/06 08:11:33;;;;;;;6.60;2.40;;;19.80;99.90;;;;;;4954384;28;20030;-58
2021/08/06 08:13:59;;;;;;;3.85;2.20;;;19.70;99.90;;;;;;4958455;28;20035;-58
2021/08/06 08:16:25;;;;;;;4.47;2.95;;;19.70;99.90;;;;;;4958625;28;20023;-58
2021/08/06 08:18:51;;;;;;;5.03;2.45;;;19.80;99.90;;;;;;4957296;28;20358;-58
2021/08/06 08:21:17;;;;;;;5.40;2.70;;;19.80;99.90;;;;;;4953956;28;20224;-58
2021/08/06 08:23:43;;;;;;;5.50;2.95;;;19.90;99.90;;;;;;4955628;28;20027;-58
2021/08/06 08:26:09;;;;;;;6.32;2.90;;;19.90;99.90;;;;;;4957440;28;20039;-58
2021/08/06 08:28:35;;;;;;;7.38;2.75;;;19.80;99.90;;;;;;4954214;28;20074;-58
2021/08/06 08:31:00;;;;;;;3.95;2.50;;;19.80;99.90;;;;;;4958113;28;20343;-58
2021/08/06 08:33:26;;;;;;;6.25;3.03;;;20.00;99.90;;;;;;4957536;28;20194;-58
2021/08/06 08:35:53;;;;;;;7.72;2.95;;;20.10;99.90;;;;;;4963987;28;20027;-58
2021/08/06 08:38:19;;;;;;;4.53;2.53;;;20.20;99.90;;;;;;4966969;28;20236;-58
2021/08/06 08:40:45;;;;;;;5.90;2.50;;;20.10;99.90;;;;;;4967457;28;20050;-58
2021/08/06 08:43:10;;;;;;;4.78;2.55;;;20.30;99.90;;;;;;4967770;28;20033;-58
2021/08/06 08:45:41;;;;;;;6.00;2.72;;;20.40;99.90;;;;;;4970717;28;20094;-58
2021/08/06 08:48:08;;;;;;;6.53;2.78;;;20.40;99.90;;;;;;4973277;28;20055;-58
2021/08/06 08:50:36;;;;;;;5.82;2.45;;;20.40;99.90;;;;;;4974470;28;20054;-58
2021/08/06 08:53:02;;;;;;;3.88;2.50;;;20.30;99.90;;;;;;4971804;28;20027;-58
2021/08/06 08:55:28;;;;;;;7.95;2.92;;;20.30;99.90;;;;;;4974256;28;20164;-58
2021/08/06 08:57:54;;;;;;;3.65;2.78;;;20.20;99.90;;;;;;4973543;28;20023;-58
2021/08/06 09:00:20;;;;;;;3.90;2.60;;;20.10;99.90;;;;;;4973027;28;20436;-58
2021/08/06 09:02:46;;;;;;;4.57;2.97;;;20.10;99.90;;;;;;4973382;28;20034;-58
2021/08/06 09:05:17;;;;;;;4.95;2.88;;;20.10;99.90;;;;;;4966409;28;20058;-58
2021/08/06 09:07:44;;;;;;;4.25;2.72;;;20.20;99.90;;;;;;4973057;28;20027;-57
2021/08/06 09:10:19;;;;;;;6.50;2.63;;;20.40;99.90;;;;;;4973822;28;20053;-58
2021/08/06 09:12:53;;;;;;;5.13;2.60;;;20.30;99.90;;;;;;4974242;28;20033;-58
2021/08/06 09:15:40;;;;;;;9.60;3.00;;;20.30;99.90;;;;;;4973861;28;20340;-58
2021/08/06 09:18:34;;;;;;;5.68;3.33;;;20.60;99.90;;;;;;4973679;28;20038;-58
2021/08/06 09:21:03;;;;;;;6.32;2.55;;;20.90;99.90;;;;;;4972098;28;20066;-58
2021/08/06 09:23:44;;;;;;;6.72;2.92;;;20.90;99.90;;;;;;4972442;28;20356;-58
2021/08/06 09:26:32;;;;;;;4.68;2.75;;;20.70;99.90;;;;;;4972532;28;20030;-58
2021/08/06 09:29:01;;;;;;;4.20;2.97;;;20.50;99.90;;;;;;4973491;28;20117;-59
2021/08/06 09:31:27;;;;;;;6.00;2.60;;;20.50;99.90;;;;;;4972668;28;20026;-58
2021/08/06 09:34:12;;;;;;;3.95;2.70;;;20.40;99.90;;;;;;4973032;28;20022;-58
2021/08/06 09:36:50;;;;;;;7.85;3.10;;;20.40;99.90;;;;;;4970754;28;20030;-58
2021/08/06 09:39:17;;;;;;;4.35;2.70;;;20.60;99.90;;;;;;4972456;28;20049;-58
2021/08/06 09:41:45;;;;;;;5.07;2.78;;;20.90;99.90;;;;;;4972847;28;20038;-58
2021/08/06 09:44:20;;;;;;;7.10;3.17;;;21.30;99.90;;;;;;4970984;28;20312;-58
2021/08/06 09:46:48;;;;;;;5.32;3.10;;;21.50;99.90;;;;;;4971380;28;20041;-58
2021/08/06 09:49:15;;;;;;;4.35;2.75;;;21.90;99.90;;;;;;4972287;28;20026;-58
2021/08/06 09:51:43;;;;;;;5.47;2.95;;;21.70;99.90;;;;;;4972187;28;20053;-58
2021/08/06 09:54:21;;;;;;;6.43;3.08;;;21.70;99.90;;;;;;4971453;28;20149;-58
2021/08/06 09:56:48;;;;;;;2.97;2.60;;;21.90;99.90;;;;;;4971571;28;20107;-58
2021/08/06 09:59:27;;;;;;;4.50;2.70;;;22.00;99.90;;;;;;4972179;28;20040;-58
2021/08/06 10:02:17;;;;;;;8.73;3.13;;;22.00;99.90;;;;;;4974129;28;20324;-58
2021/08/06 10:04:45;;;;;;;4.55;2.90;;;22.10;99.90;;;;;;4967055;28;20034;-58
2021/08/06 10:07:11;;;;;;;5.18;2.90;;;22.30;99.90;;;;;;4970943;28;20388;-58
2021/08/06 10:09:37;;;;;;;4.97;2.42;;;22.70;99.90;;;;;;4970069;28;20058;-60
2021/08/06 10:12:04;;;;;;;3.50;2.30;;;23.10;99.90;;;;;;4972202;28;20451;-60
2021/08/06 10:14:31;;;;;;;5.35;2.50;;;22.90;99.90;;;;;;4967449;28;20034;-60
2021/08/06 10:16:57;;;;;;;7.85;2.70;;;22.70;99.90;;;;;;4963941;28;20026;-60
2021/08/06 10:19:23;;;;;;;3.88;3.00;;;23.00;99.90;;;;;;4961895;28;20232;-58
2021/08/06 10:21:49;;;;;;;8.20;3.50;;;23.00;99.90;;;;;;4956989;28;20031;-58
2021/08/06 10:24:16;;;;;;;5.22;2.78;;;23.10;99.90;;;;;;4958415;28;20030;-58
2021/08/06 10:26:46;;;;;;;5.18;2.90;;;23.80;99.90;;;;;;4954245;28;20549;-58
2021/08/06 10:29:13;;;;;;;7.18;2.78;;;23.70;99.90;;;;;;4972747;28;20316;-58
2021/08/06 10:31:39;;;;;;;4.68;2.78;;;23.80;99.90;;;;;;4960255;28;20203;-58
2021/08/06 10:34:12;;;;;;;5.22;2.42;;;23.60;99.90;;;;;;4968539;28;20324;-58
2021/08/06 10:36:43;;;;;;;4.78;2.80;;;23.40;99.90;;;;;;4968717;28;20035;-58
2021/08/06 10:39:31;;;;;;;5.07;2.72;;;23.20;99.90;;;;;;4969067;28;20031;-58
2021/08/06 10:41:58;;;;;;;4.88;2.88;;;23.00;99.90;;;;;;4972279;28;20122;-58
2021/08/06 10:44:24;;;;;;;8.85;3.47;;;23.00;99.90;;;;;;4967687;28;20045;-58
2021/08/06 10:47:05;;;;;;;5.07;2.55;;;22.70;99.90;;;;;;4982635;28;20228;-58
2021/08/06 10:49:32;;;;;;;6.72;2.97;;;22.60;99.90;;;;;;4972699;28;20364;-58
2021/08/06 10:52:20;;;;;;;5.38;2.60;;;23.00;99.90;;;;;;4971755;28;20031;-58
2021/08/06 10:54:48;;;;;;;4.13;2.70;;;23.60;99.90;;;;;;4969034;28;20074;-58
2021/08/06 10:57:18;;;;;;;6.28;3.03;;;23.40;99.90;;;;;;4967415;28;20042;-58
2021/08/06 10:59:45;;;;;;;7.15;3.30;;;23.50;99.90;;;;;;4969737;28;20040;-58
2021/08/06 11:02:36;;;;;;;5.45;2.80;;;23.50;99.90;;;;;;4966021;28;20163;-58
2021/08/06 11:05:30;;;;;;;6.70;2.78;;;23.50;99.90;;;;;;4967518;28;20061;-58
2021/08/06 11:07:56;;;;;;;4.85;2.70;;;23.90;99.90;;;;;;4971854;28;20038;-58
2021/08/06 11:10:44;;;;;;;7.25;2.45;;;24.10;99.90;;;;;;4971606;28;20026;-58
2021/08/06 11:13:46;;;;;;;4.07;2.33;;;23.90;99.90;;;;;;4971083;28;20031;-58
2021/08/06 11:16:12;;;;;;;6.70;2.92;;;23.80;99.90;;;;;;4928849;28;20038;-58
2021/08/06 11:18:43;;;;;;;5.45;2.80;;;23.70;99.90;;;;;;4970843;28;20026;-58
2021/08/06 11:21:09;;;;;;;5.20;3.00;;;24.00;99.90;;;;;;4971347;28;20034;-58
2021/08/06 11:23:35;;;;;;;6.88;3.40;;;24.40;99.90;;;;;;4971293;28;20037;-58
2021/08/06 11:26:11;;;;;;;5.18;2.97;;;23.90;99.90;;;;;;4970780;28;20035;-58
2021/08/06 11:28:37;;;;;;;6.90;2.88;;;23.80;99.90;;;;;;4968857;28;20224;-58
2021/08/06 11:31:20;;;;;;;5.60;2.60;;;23.80;99.90;;;;;;4971942;28;20049;-59
2021/08/06 11:34:06;;;;;;;4.85;2.70;;;24.20;99.90;;;;;;4971322;28;20041;-58
2021/08/06 11:36:34;;;;;;;6.22;2.80;;;24.40;99.90;;;;;;4969720;28;20336;-59
2021/08/06 11:39:14;;;;;;;5.13;3.10;;;24.20;99.90;;;;;;4972760;28;20379;-58
2021/08/06 11:41:54;;;;;;;6.68;2.47;;;24.50;99.90;;;;;;4972294;28;20031;-58
2021/08/06 11:44:20;;;;;;;4.85;2.45;;;25.00;99.90;;;;;;4971563;28;20098;-59
2021/08/06 11:46:48;;;;;;;7.88;2.88;;;24.80;99.90;;;;;;4972228;28;20031;-59
2021/08/06 11:49:15;;;;;;;5.03;2.28;;;24.80;99.90;;;;;;4971541;28;20101;-59
2021/08/06 11:51:52;;;;;;;4.00;2.47;;;24.80;99.90;;;;;;4972358;28;20030;-59
2021/08/06 11:54:19;;;;;;;6.03;2.47;;;25.10;99.90;;;;;;4972116;28;20380;-58
2021/08/06 11:56:55;;;;;;;4.95;2.67;;;25.60;99.90;;;;;;4971427;28;20034;-58
2021/08/06 11:59:22;;;;;;;7.38;2.42;;;25.60;99.90;;;;;;4972554;28;20037;-58
2021/08/06 12:01:48;;;;;;;6.43;2.40;;;25.40;99.90;;;;;;4971513;28;20039;-58
2021/08/06 12:04:13;;;;;;;6.47;2.40;;;25.40;99.90;;;;;;4971519;28;20029;-58
2021/08/06 12:06:44;;;;;;;5.97;2.50;;;25.00;99.90;;;;;;4970305;28;20048;-59
2021/08/06 12:09:10;;;;;;;9.50;2.70;;;25.20;99.90;;;;;;4971870;28;20351;-58
2021/08/06 12:11:44;;;;;;;5.05;2.20;;;25.30;99.90;;;;;;4968025;28;20256;-57
2021/08/06 12:14:11;;;;;;;3.10;1.98;;;24.90;99.90;;;;;;4966961;28;20352;-57
2021/08/06 12:16:41;;;;;;;2.90;2.05;;;24.90;99.90;;;;;;4963790;28;20058;-58
2021/08/06 12:19:09;;;;;;;5.00;2.30;;;25.10;99.90;;;;;;4971042;28;20252;-58
2021/08/06 12:21:43;;;;;;;9.88;2.47;;;24.90;99.90;;;;;;4970495;28;20034;-58
2021/08/06 12:24:12;;;;;;;6.43;2.15;;;25.10;99.90;;;;;;4972631;28;20240;-58
2021/08/06 12:26:38;;;;;;;4.15;2.10;;;25.60;98.90;;;;;;4974364;28;20141;-58
2021/08/06 12:29:31;;;;;;;3.90;2.28;;;25.80;99.90;;;;;;4972823;28;20304;-58
2021/08/06 12:32:03;;;;;;;4.22;2.10;;;25.70;99.90;;;;;;4970024;28;20047;-58
2021/08/06 12:34:44;;;;;;;5.53;2.58;;;25.10;99.90;;;;;;4970275;28;20079;-58
2021/08/06 12:37:12;;;;;;;7.38;2.80;;;24.90;99.90;;;;;;4972295;28;20027;-58
2021/08/06 12:39:46;;;;;;;8.50;2.22;;;24.80;99.90;;;;;;4974778;28;20110;-60
2021/08/06 12:42:20;;;;;;;7.03;2.53;;;25.00;99.90;;;;;;4973847;28;20027;-60
2021/08/06 12:45:15;;;;;;;6.18;2.35;;;24.70;99.90;;;;;;4971559;28;20023;-60
2021/08/06 12:47:51;;;;;;;6.05;2.55;;;24.40;99.90;;;;;;4970687;28;20121;-58
2021/08/06 12:50:24;;;;;;;7.43;3.20;;;24.10;99.90;;;;;;4973257;28;20054;-58
2021/08/06 12:53:06;;;;;;;5.70;2.53;;;23.90;99.90;;;;;;4974185;28;20031;-58